sensor_id;sensor_type;location;lat;lon;timestamp;temperature;humidity
64715;DHT22;51144;53.002;6.506;2022-08-21T00:00:49;16.60;99.90
64715;DHT22;51144;53.002;6.506;2022-08-21T00:03:15;16.50;99.90
64715;DHT22;51144;53.002;6.506;2022-08-21T00:05:48;16.40;99.90
64715;DHT22;51144;53.002;6.506;2022-08-21T00:08:16;16.30;99.90
64715;DHT22;51144;53.002;6.506;2022-08-21T00:10:43;16.30;99.90
64715;DHT22;51144;53.002;6.506;2022-08-21T00:13:10;16.20;99.90
64715;DHT22;51144;53.002;6.506;2022-08-21T00:15:38;16.20;99.90
64715;DHT22;51144;53.002;6.506;2022-08-21T00:18:05;16.20;99.90
64715;DHT22;51144;53.002;6.506;2022-08-21T00:20:33;16.20;99.90
64715;DHT22;51144;53.002;6.506;2022-08-21T00:22:58;16.20;99.90
64715;DHT22;51144;53.002;6.506;2022-08-21T00:25:25;16.20;99.90
64715;DHT22;51144;53.002;6.506;2022-08-21T00:27:50;16.10;99.90
64715;DHT22;51144;53.002;6.506;2022-08-21T00:30:18;16.10;99.90
64715;DHT22;51144;53.002;6.506;2022-08-21T00:32:44;16.10;99.90
64715;DHT22;51144;53.002;6.506;2022-08-21T00:35:13;16.00;99.90
64715;DHT22;51144;53.002;6.506;2022-08-21T00:37:43;16.00;99.90
64715;DHT22;51144;53.002;6.506;2022-08-21T00:40:13;15.90;99.90
64715;DHT22;51144;53.002;6.506;2022-08-21T00:42:40;15.90;99.90
64715;DHT22;51144;53.002;6.506;2022-08-21T00:45:06;15.80;99.90
64715;DHT22;51144;53.002;6.506;2022-08-21T00:47:32;15.70;99.90
64715;DHT22;51144;53.002;6.506;2022-08-21T00:49:57;15.70;99.90
64715;DHT22;51144;53.002;6.506;2022-08-21T00:52:26;15.60;99.90
64715;DHT22;51144;53.002;6.506;2022-08-21T00:54:54;15.60;99.90
64715;DHT22;51144;53.002;6.506;2022-08-21T00:57:26;15.60;99.90
64715;DHT22;51144;53.002;6.506;2022-08-21T00:59:55;15.50;99.90
64715;DHT22;51144;53.002;6.506;2022-08-21T01:02:21;15.50;99.90
64715;DHT22;51144;53.002;6.506;2022-08-21T01:04:50;15.50;99.90
64715;DHT22;51144;53.002;6.506;2022-08-21T01:07:16;15.50;99.90
64715;DHT22;51144;53.002;6.506;2022-08-21T01:09:43;15.40;99.90
64715;DHT22;51144;53.002;6.506;2022-08-21T01:12:11;15.40;99.90
64715;DHT22;51144;53.002;6.506;2022-08-21T01:14:37;15.40;99.90
64715;DHT22;51144;53.002;6.506;2022-08-21T01:17:04;15.50;99.90
64715;DHT22;51144;53.002;6.506;2022-08-21T01:19:30;15.50;99.90
64715;DHT22;51144;53.002;6.506;2022-08-21T01:21:56;15.50;99.90
64715;DHT22;51144;53.002;6.506;2022-08-21T01:24:22;15.50;99.90
64715;DHT22;51144;53.002;6.506;2022-08-21T01:26:49;15.60;99.90
64715;DHT22;51144;53.002;6.506;2022-08-21T01:29:39;15.60;99.90
64715;DHT22;51144;53.002;6.506;2022-08-21T01:32:13;15.60;99.90
64715;DHT22;51144;53.002;6.506;2022-08-21T01:34:42;15.60;99.90
64715;DHT22;51144;53.002;6.506;2022-08-21T01:37:08;15.60;99.90
64715;DHT22;51144;53.002;6.506;2022-08-21T01:39:34;15.50;99.90
64715;DHT22;51144;53.002;6.506;2022-08-21T01:42:00;15.50;99.90
64715;DHT22;51144;53.002;6.506;2022-08-21T01:44:29;15.50;99.90
64715;DHT22;51144;53.002;6.506;2022-08-21T01:46:55;15.50;99.90
64715;DHT22;51144;53.002;6.506;2022-08-21T01:49:21;15.50;99.90
64715;DHT22;51144;53.002;6.506;2022-08-21T01:51:46;15.50;99.90
64715;DHT22;51144;53.002;6.506;2022-08-21T01:54:12;15.50;99.90
64715;DHT22;51144;53.002;6.506;2022-08-21T01:56:41;15.50;99.90
64715;DHT22;51144;53.002;6.506;2022-08-21T01:59:11;15.50;99.90
64715;DHT22;51144;53.002;6.506;2022-08-21T02:01:37;15.50;99.90
64715;DHT22;51144;53.002;6.506;2022-08-21T02:04:05;15.50;99.90
64715;DHT22;51144;53.002;6.506;2022-08-21T02:06:31;15.50;99.90
64715;DHT22;51144;53.002;6.506;2022-08-21T02:08:57;15.50;99.90
64715;DHT22;51144;53.002;6.506;2022-08-21T02:11:23;15.40;99.90
64715;DHT22;51144;53.002;6.506;2022-08-21T02:13:49;15.40;99.90
64715;DHT22;51144;53.002;6.506;2022-08-21T02:16:14;15.40;99.90
64715;DHT22;51144;53.002;6.506;2022-08-21T02:18:40;15.40;99.90
64715;DHT22;51144;53.002;6.506;2022-08-21T02:21:06;15.40;99.90
64715;DHT22;51144;53.002;6.506;2022-08-21T02:23:32;15.40;99.90
64715;DHT22;51144;53.002;6.506;2022-08-21T02:26:03;15.40;99.90
64715;DHT22;51144;53.002;6.506;2022-08-21T02:28:29;15.40;99.90
64715;DHT22;51144;53.002;6.506;2022-08-21T02:30:55;15.40;99.90
64715;DHT22;51144;53.002;6.506;2022-08-21T02:33:21;15.40;99.90
64715;DHT22;51144;53.002;6.506;2022-08-21T02:35:47;15.40;99.90
64715;DHT22;51144;53.002;6.506;2022-08-21T02:38:16;15.40;99.90
64715;DHT22;51144;53.002;6.506;2022-08-21T02:40:44;15.40;99.90
64715;DHT22;51144;53.002;6.506;2022-08-21T02:43:11;15.30;99.90
64715;DHT22;51144;53.002;6.506;2022-08-21T02:45:38;15.30;99.90
64715;DHT22;51144;53.002;6.506;2022-08-21T02:48:07;15.30;99.90
64715;DHT22;51144;53.002;6.506;2022-08-21T02:50:35;15.30;99.90
64715;DHT22;51144;53.002;6.506;2022-08-21T02:53:01;15.30;99.90
64715;DHT22;51144;53.002;6.506;2022-08-21T02:55:30;15.30;99.90
64715;DHT22;51144;53.002;6.506;2022-08-21T02:57:57;15.20;99.90
64715;DHT22;51144;53.002;6.506;2022-08-21T03:00:25;15.20;99.90
64715;DHT22;51144;53.002;6.506;2022-08-21T03:02:52;15.20;99.90
64715;DHT22;51144;53.002;6.506;2022-08-21T03:05:19;15.20;99.90
64715;DHT22;51144;53.002;6.506;2022-08-21T03:08:12;15.20;99.90
64715;DHT22;51144;53.002;6.506;2022-08-21T03:10:40;15.10;99.90
64715;DHT22;51144;53.002;6.506;2022-08-21T03:13:05;15.10;99.90
64715;DHT22;51144;53.002;6.506;2022-08-21T03:15:32;15.10;99.90
64715;DHT22;51144;53.002;6.506;2022-08-21T03:18:02;15.10;99.90
64715;DHT22;51144;53.002;6.506;2022-08-21T03:20:29;15.10;99.90
64715;DHT22;51144;53.002;6.506;2022-08-21T03:22:56;15.10;99.90
64715;DHT22;51144;53.002;6.506;2022-08-21T03:25:23;15.00;99.90
64715;DHT22;51144;53.002;6.506;2022-08-21T03:27:49;15.00;99.90
64715;DHT22;51144;53.002;6.506;2022-08-21T03:30:17;15.10;99.90
64715;DHT22;51144;53.002;6.506;2022-08-21T03:32:42;15.00;99.90
64715;DHT22;51144;53.002;6.506;2022-08-21T03:35:08;15.00;99.90
64715;DHT22;51144;53.002;6.506;2022-08-21T03:37:35;15.00;99.90
64715;DHT22;51144;53.002;6.506;2022-08-21T03:40:02;15.00;99.90
64715;DHT22;51144;53.002;6.506;2022-08-21T03:42:28;15.00;99.90
64715;DHT22;51144;53.002;6.506;2022-08-21T03:44:54;15.00;99.90
64715;DHT22;51144;53.002;6.506;2022-08-21T03:47:19;14.90;99.90
64715;DHT22;51144;53.002;6.506;2022-08-21T03:49:45;15.00;99.90
64715;DHT22;51144;53.002;6.506;2022-08-21T03:52:10;14.90;99.90
64715;DHT22;51144;53.002;6.506;2022-08-21T03:54:36;14.90;99.90
64715;DHT22;51144;53.002;6.506;2022-08-21T03:57:02;14.90;99.90
64715;DHT22;51144;53.002;6.506;2022-08-21T03:59:27;14.90;99.90
64715;DHT22;51144;53.002;6.506;2022-08-21T04:01:54;15.00;99.90
64715;DHT22;51144;53.002;6.506;2022-08-21T04:04:20;14.90;99.90
64715;DHT22;51144;53.002;6.506;2022-08-21T04:06:45;14.90;99.90
64715;DHT22;51144;53.002;6.506;2022-08-21T04:09:16;14.90;99.90
64715;DHT22;51144;53.002;6.506;2022-08-21T04:11:42;14.90;99.90
64715;DHT22;51144;53.002;6.506;2022-08-21T04:14:13;14.90;99.90
64715;DHT22;51144;53.002;6.506;2022-08-21T04:16:40;14.90;99.90
64715;DHT22;51144;53.002;6.506;2022-08-21T04:19:07;14.90;99.90
64715;DHT22;51144;53.002;6.506;2022-08-21T04:21:39;14.90;99.90
64715;DHT22;51144;53.002;6.506;2022-08-21T04:24:06;14.80;99.90
64715;DHT22;51144;53.002;6.506;2022-08-21T04:26:33;14.90;99.90
64715;DHT22;51144;53.002;6.506;2022-08-21T04:29:00;14.90;99.90
64715;DHT22;51144;53.002;6.506;2022-08-21T04:31:26;14.90;99.90
64715;DHT22;51144;53.002;6.506;2022-08-21T04:33:54;14.90;99.90
64715;DHT22;51144;53.002;6.506;2022-08-21T04:36:20;14.90;99.90
64715;DHT22;51144;53.002;6.506;2022-08-21T04:38:45;14.90;99.90
64715;DHT22;51144;53.002;6.506;2022-08-21T04:41:11;14.90;99.90
64715;DHT22;51144;53.002;6.506;2022-08-21T04:43:38;14.90;99.90
64715;DHT22;51144;53.002;6.506;2022-08-21T04:46:04;15.00;99.90
64715;DHT22;51144;53.002;6.506;2022-08-21T04:48:31;15.00;99.90
64715;DHT22;51144;53.002;6.506;2022-08-21T04:51:06;15.10;99.90
64715;DHT22;51144;53.002;6.506;2022-08-21T04:53:51;15.00;99.90
64715;DHT22;51144;53.002;6.506;2022-08-21T04:56:30;15.10;99.90
64715;DHT22;51144;53.002;6.506;2022-08-21T04:58:59;15.20;99.90
64715;DHT22;51144;53.002;6.506;2022-08-21T05:01:29;15.20;99.90
64715;DHT22;51144;53.002;6.506;2022-08-21T05:03:59;15.30;99.90
64715;DHT22;51144;53.002;6.506;2022-08-21T05:06:28;15.40;99.90
64715;DHT22;51144;53.002;6.506;2022-08-21T05:08:56;15.60;99.90
64715;DHT22;51144;53.002;6.506;2022-08-21T05:11:22;16.40;99.90
64715;DHT22;51144;53.002;6.506;2022-08-21T05:13:49;17.60;99.90
64715;DHT22;51144;53.002;6.506;2022-08-21T05:16:15;18.80;99.90
64715;DHT22;51144;53.002;6.506;2022-08-21T05:18:41;19.80;99.90
64715;DHT22;51144;53.002;6.506;2022-08-21T05:21:07;20.80;99.90
64715;DHT22;51144;53.002;6.506;2022-08-21T05:23:33;21.50;99.90
64715;DHT22;51144;53.002;6.506;2022-08-21T12:39:29;23.80;99.80
64715;DHT22;51144;53.002;6.506;2022-08-21T12:42:06;23.60;99.90
64715;DHT22;51144;53.002;6.506;2022-08-21T12:44:52;23.50;99.70
64715;DHT22;51144;53.002;6.506;2022-08-21T12:47:36;23.40;99.60
64715;DHT22;51144;53.002;6.506;2022-08-21T12:50:15;23.30;99.90
64715;DHT22;51144;53.002;6.506;2022-08-21T12:52:54;23.10;99.90
64715;DHT22;51144;53.002;6.506;2022-08-21T12:55:28;23.10;99.90
64715;DHT22;51144;53.002;6.506;2022-08-21T12:57:54;23.10;99.90
64715;DHT22;51144;53.002;6.506;2022-08-21T13:00:22;22.90;99.90
64715;DHT22;51144;53.002;6.506;2022-08-21T13:02:50;23.10;99.90
64715;DHT22;51144;53.002;6.506;2022-08-21T13:05:31;23.10;99.90
64715;DHT22;51144;53.002;6.506;2022-08-21T13:07:58;23.20;99.90
64715;DHT22;51144;53.002;6.506;2022-08-21T13:10:29;23.30;99.90
64715;DHT22;51144;53.002;6.506;2022-08-21T13:13:02;23.30;99.90
64715;DHT22;51144;53.002;6.506;2022-08-21T13:15:34;23.40;99.90
64715;DHT22;51144;53.002;6.506;2022-08-21T13:18:01;23.40;99.90
64715;DHT22;51144;53.002;6.506;2022-08-21T13:20:33;23.40;99.70
64715;DHT22;51144;53.002;6.506;2022-08-21T13:23:46;23.40;99.90
64715;DHT22;51144;53.002;6.506;2022-08-21T13:25:46;23.40;99.90
64715;DHT22;51144;53.002;6.506;2022-08-21T13:28:13;23.30;99.40
64715;DHT22;51144;53.002;6.506;2022-08-21T13:30:45;23.50;99.90
64715;DHT22;51144;53.002;6.506;2022-08-21T13:33:16;23.60;99.50
64715;DHT22;51144;53.002;6.506;2022-08-21T13:38:25;23.60;99.60
64715;DHT22;51144;53.002;6.506;2022-08-21T13:43:45;23.70;98.80
64715;DHT22;51144;53.002;6.506;2022-08-21T13:46:13;23.80;99.10
64715;DHT22;51144;53.002;6.506;2022-08-21T13:48:40;23.90;99.10
64715;DHT22;51144;53.002;6.506;2022-08-21T13:51:06;23.90;98.10
64715;DHT22;51144;53.002;6.506;2022-08-21T13:54:01;23.90;98.80
64715;DHT22;51144;53.002;6.506;2022-08-21T13:56:45;23.90;98.30
64715;DHT22;51144;53.002;6.506;2022-08-21T13:59:11;23.90;98.50
64715;DHT22;51144;53.002;6.506;2022-08-21T14:01:47;23.90;97.90
64715;DHT22;51144;53.002;6.506;2022-08-21T14:04:29;23.70;97.90
64715;DHT22;51144;53.002;6.506;2022-08-21T14:06:56;23.70;98.00
64715;DHT22;51144;53.002;6.506;2022-08-21T14:09:34;23.70;98.10
64715;DHT22;51144;53.002;6.506;2022-08-21T14:12:11;23.70;98.40
64715;DHT22;51144;53.002;6.506;2022-08-21T14:14:39;23.80;98.40
64715;DHT22;51144;53.002;6.506;2022-08-21T14:17:07;23.80;98.30
64715;DHT22;51144;53.002;6.506;2022-08-21T14:19:43;23.70;97.80
64715;DHT22;51144;53.002;6.506;2022-08-21T14:30:40;23.80;96.90
64715;DHT22;51144;53.002;6.506;2022-08-21T14:33:21;23.70;97.00
64715;DHT22;51144;53.002;6.506;2022-08-21T14:35:48;23.80;97.50
64715;DHT22;51144;53.002;6.506;2022-08-21T14:38:17;23.80;97.20
64715;DHT22;51144;53.002;6.506;2022-08-21T14:40:46;23.70;97.40
64715;DHT22;51144;53.002;6.506;2022-08-21T14:43:12;23.70;97.30
64715;DHT22;51144;53.002;6.506;2022-08-21T14:45:38;23.80;97.80
64715;DHT22;51144;53.002;6.506;2022-08-21T14:48:06;23.80;97.40
64715;DHT22;51144;53.002;6.506;2022-08-21T14:50:33;23.80;97.20
64715;DHT22;51144;53.002;6.506;2022-08-21T14:52:59;23.80;97.30
64715;DHT22;51144;53.002;6.506;2022-08-21T14:55:25;23.80;97.20
64715;DHT22;51144;53.002;6.506;2022-08-21T14:57:55;23.80;97.20
64715;DHT22;51144;53.002;6.506;2022-08-21T15:00:24;23.70;97.50
64715;DHT22;51144;53.002;6.506;2022-08-21T15:02:51;23.80;98.10
64715;DHT22;51144;53.002;6.506;2022-08-21T15:05:17;23.90;98.10
64715;DHT22;51144;53.002;6.506;2022-08-21T15:07:43;23.80;97.50
64715;DHT22;51144;53.002;6.506;2022-08-21T15:10:10;24.00;98.30
64715;DHT22;51144;53.002;6.506;2022-08-21T15:12:36;24.00;97.20
64715;DHT22;51144;53.002;6.506;2022-08-21T15:15:04;24.10;97.70
64715;DHT22;51144;53.002;6.506;2022-08-21T15:17:30;24.00;97.20
64715;DHT22;51144;53.002;6.506;2022-08-21T15:19:55;23.90;96.50
64715;DHT22;51144;53.002;6.506;2022-08-21T15:22:21;23.80;96.80
64715;DHT22;51144;53.002;6.506;2022-08-21T15:24:49;23.60;97.10
64715;DHT22;51144;53.002;6.506;2022-08-21T15:27:16;23.60;96.80
64715;DHT22;51144;53.002;6.506;2022-08-21T15:29:43;23.70;97.00
64715;DHT22;51144;53.002;6.506;2022-08-21T15:32:24;23.70;96.50
64715;DHT22;51144;53.002;6.506;2022-08-21T15:34:52;23.70;96.30
64715;DHT22;51144;53.002;6.506;2022-08-21T15:37:18;23.60;96.40
64715;DHT22;51144;53.002;6.506;2022-08-21T15:39:44;23.60;96.80
64715;DHT22;51144;53.002;6.506;2022-08-21T15:42:11;23.60;96.30
64715;DHT22;51144;53.002;6.506;2022-08-21T15:44:41;23.70;96.70
64715;DHT22;51144;53.002;6.506;2022-08-21T15:47:17;23.90;97.30
64715;DHT22;51144;53.002;6.506;2022-08-21T15:49:43;23.90;96.40
64715;DHT22;51144;53.002;6.506;2022-08-21T15:52:14;24.00;95.90
64715;DHT22;51144;53.002;6.506;2022-08-21T15:54:40;23.90;95.70
64715;DHT22;51144;53.002;6.506;2022-08-21T15:57:06;23.90;96.00
64715;DHT22;51144;53.002;6.506;2022-08-21T15:59:39;23.80;96.10
64715;DHT22;51144;53.002;6.506;2022-08-21T16:02:09;24.00;96.40
64715;DHT22;51144;53.002;6.506;2022-08-21T16:04:39;23.90;95.80
64715;DHT22;51144;53.002;6.506;2022-08-21T16:07:05;23.90;95.90
64715;DHT22;51144;53.002;6.506;2022-08-21T16:09:30;23.80;95.80
64715;DHT22;51144;53.002;6.506;2022-08-21T16:11:56;23.70;95.20
64715;DHT22;51144;53.002;6.506;2022-08-21T16:14:22;23.60;95.40
64715;DHT22;51144;53.002;6.506;2022-08-21T16:16:48;23.70;96.00
64715;DHT22;51144;53.002;6.506;2022-08-21T16:19:14;23.60;95.80
64715;DHT22;51144;53.002;6.506;2022-08-21T16:21:39;23.60;96.00
64715;DHT22;51144;53.002;6.506;2022-08-21T16:24:05;23.70;96.40
64715;DHT22;51144;53.002;6.506;2022-08-21T16:26:31;23.70;96.00
64715;DHT22;51144;53.002;6.506;2022-08-21T16:28:59;23.70;96.00
64715;DHT22;51144;53.002;6.506;2022-08-21T16:31:28;23.70;95.60
64715;DHT22;51144;53.002;6.506;2022-08-21T16:33:56;23.50;95.30
64715;DHT22;51144;53.002;6.506;2022-08-21T16:36:22;23.40;95.70
64715;DHT22;51144;53.002;6.506;2022-08-21T16:38:51;23.40;96.40
64715;DHT22;51144;53.002;6.506;2022-08-21T16:41:19;23.40;96.30
64715;DHT22;51144;53.002;6.506;2022-08-21T16:43:46;23.30;96.20
64715;DHT22;51144;53.002;6.506;2022-08-21T16:46:14;23.10;96.20
64715;DHT22;51144;53.002;6.506;2022-08-21T16:48:41;23.10;96.90
64715;DHT22;51144;53.002;6.506;2022-08-21T16:51:09;23.10;96.80
64715;DHT22;51144;53.002;6.506;2022-08-21T16:53:56;23.00;96.50
64715;DHT22;51144;53.002;6.506;2022-08-21T16:56:22;23.10;96.50
64715;DHT22;51144;53.002;6.506;2022-08-21T16:58:48;23.10;97.10
64715;DHT22;51144;53.002;6.506;2022-08-21T17:01:17;23.00;97.30
64715;DHT22;51144;53.002;6.506;2022-08-21T17:03:45;22.90;97.50
64715;DHT22;51144;53.002;6.506;2022-08-21T17:06:12;22.90;97.90
64715;DHT22;51144;53.002;6.506;2022-08-21T17:08:39;22.80;98.50
64715;DHT22;51144;53.002;6.506;2022-08-21T17:11:06;22.80;98.90
64715;DHT22;51144;53.002;6.506;2022-08-21T17:13:33;22.80;99.40
64715;DHT22;51144;53.002;6.506;2022-08-21T17:15:59;22.70;99.20
64715;DHT22;51144;53.002;6.506;2022-08-21T17:18:26;22.60;99.10
64715;DHT22;51144;53.002;6.506;2022-08-21T17:20:52;22.60;99.20
64715;DHT22;51144;53.002;6.506;2022-08-21T17:23:18;22.50;99.40
64715;DHT22;51144;53.002;6.506;2022-08-21T17:25:46;22.40;99.90
64715;DHT22;51144;53.002;6.506;2022-08-21T17:28:22;22.40;99.80
64715;DHT22;51144;53.002;6.506;2022-08-21T17:30:49;22.30;99.70
64715;DHT22;51144;53.002;6.506;2022-08-21T17:33:17;22.20;99.80
64715;DHT22;51144;53.002;6.506;2022-08-21T17:35:43;22.10;99.80
64715;DHT22;51144;53.002;6.506;2022-08-21T17:38:10;22.00;99.90
64715;DHT22;51144;53.002;6.506;2022-08-21T17:40:37;21.90;99.90
64715;DHT22;51144;53.002;6.506;2022-08-21T17:43:03;21.80;99.90
64715;DHT22;51144;53.002;6.506;2022-08-21T17:45:29;21.80;99.90
64715;DHT22;51144;53.002;6.506;2022-08-21T17:47:54;21.60;99.90
64715;DHT22;51144;53.002;6.506;2022-08-21T17:50:20;21.60;99.90
64715;DHT22;51144;53.002;6.506;2022-08-21T17:52:46;21.60;99.90
64715;DHT22;51144;53.002;6.506;2022-08-21T17:55:16;21.60;99.90
64715;DHT22;51144;53.002;6.506;2022-08-21T17:57:43;21.50;99.90
64715;DHT22;51144;53.002;6.506;2022-08-21T18:00:11;21.50;99.90
64715;DHT22;51144;53.002;6.506;2022-08-21T18:02:39;21.40;99.90
64715;DHT22;51144;53.002;6.506;2022-08-21T18:05:07;21.40;99.90
64715;DHT22;51144;53.002;6.506;2022-08-21T18:07:33;21.40;99.90
64715;DHT22;51144;53.002;6.506;2022-08-21T18:10:05;21.40;99.90
64715;DHT22;51144;53.002;6.506;2022-08-21T18:12:32;21.30;99.90
64715;DHT22;51144;53.002;6.506;2022-08-21T18:14:58;21.30;99.90
64715;DHT22;51144;53.002;6.506;2022-08-21T18:17:25;21.20;99.90
64715;DHT22;51144;53.002;6.506;2022-08-21T18:19:52;21.20;99.90
64715;DHT22;51144;53.002;6.506;2022-08-21T18:22:18;21.10;99.90
64715;DHT22;51144;53.002;6.506;2022-08-21T18:24:44;21.10;99.90
64715;DHT22;51144;53.002;6.506;2022-08-21T18:27:11;21.00;99.90
64715;DHT22;51144;53.002;6.506;2022-08-21T18:29:38;20.90;99.90
64715;DHT22;51144;53.002;6.506;2022-08-21T18:32:05;20.90;99.90
64715;DHT22;51144;53.002;6.506;2022-08-21T18:34:37;20.80;99.90
64715;DHT22;51144;53.002;6.506;2022-08-21T18:37:06;20.80;99.90
64715;DHT22;51144;53.002;6.506;2022-08-21T18:39:32;20.70;99.90
64715;DHT22;51144;53.002;6.506;2022-08-21T18:41:59;20.70;99.90
64715;DHT22;51144;53.002;6.506;2022-08-21T18:44:30;20.70;99.90
64715;DHT22;51144;53.002;6.506;2022-08-21T18:47:05;20.60;99.90
64715;DHT22;51144;53.002;6.506;2022-08-21T18:49:31;20.60;99.90
64715;DHT22;51144;53.002;6.506;2022-08-21T18:51:57;20.60;99.90
64715;DHT22;51144;53.002;6.506;2022-08-21T18:54:23;20.60;99.90
64715;DHT22;51144;53.002;6.506;2022-08-21T18:56:48;20.60;99.90
64715;DHT22;51144;53.002;6.506;2022-08-21T18:59:14;20.50;99.90
64715;DHT22;51144;53.002;6.506;2022-08-21T19:01:41;20.50;99.90
64715;DHT22;51144;53.002;6.506;2022-08-21T19:04:10;20.50;99.90
64715;DHT22;51144;53.002;6.506;2022-08-21T19:06:36;20.40;99.90
64715;DHT22;51144;53.002;6.506;2022-08-21T19:09:07;20.40;99.90
64715;DHT22;51144;53.002;6.506;2022-08-21T19:11:35;20.30;99.90
64715;DHT22;51144;53.002;6.506;2022-08-21T19:14:06;20.30;99.90
64715;DHT22;51144;53.002;6.506;2022-08-21T19:16:32;20.30;99.90
64715;DHT22;51144;53.002;6.506;2022-08-21T19:18:59;20.20;99.90
64715;DHT22;51144;53.002;6.506;2022-08-21T19:21:25;20.10;99.90
64715;DHT22;51144;53.002;6.506;2022-08-21T19:23:54;20.10;99.90
64715;DHT22;51144;53.002;6.506;2022-08-21T19:26:23;20.00;99.90
64715;DHT22;51144;53.002;6.506;2022-08-21T19:28:52;20.00;99.90
64715;DHT22;51144;53.002;6.506;2022-08-21T19:31:27;19.90;99.90
64715;DHT22;51144;53.002;6.506;2022-08-21T19:34:03;19.80;99.90
64715;DHT22;51144;53.002;6.506;2022-08-21T19:36:30;19.80;99.90
64715;DHT22;51144;53.002;6.506;2022-08-21T19:38:56;19.70;99.90
64715;DHT22;51144;53.002;6.506;2022-08-21T19:41:24;19.70;99.90
64715;DHT22;51144;53.002;6.506;2022-08-21T19:43:54;19.60;99.90
64715;DHT22;51144;53.002;6.506;2022-08-21T19:46:30;19.50;99.90
64715;DHT22;51144;53.002;6.506;2022-08-21T19:48:57;19.50;99.90
64715;DHT22;51144;53.002;6.506;2022-08-21T19:51:23;19.50;99.90
64715;DHT22;51144;53.002;6.506;2022-08-21T19:53:50;19.40;99.90
64715;DHT22;51144;53.002;6.506;2022-08-21T19:56:20;19.40;99.90
64715;DHT22;51144;53.002;6.506;2022-08-21T19:58:47;19.30;99.90
64715;DHT22;51144;53.002;6.506;2022-08-21T20:01:14;19.20;99.90
64715;DHT22;51144;53.002;6.506;2022-08-21T20:03:41;19.20;99.90
64715;DHT22;51144;53.002;6.506;2022-08-21T20:06:07;19.20;99.90
64715;DHT22;51144;53.002;6.506;2022-08-21T20:08:33;19.10;99.90
64715;DHT22;51144;53.002;6.506;2022-08-21T20:11:00;19.10;99.90
64715;DHT22;51144;53.002;6.506;2022-08-21T20:13:30;19.00;99.90
64715;DHT22;51144;53.002;6.506;2022-08-21T20:16:03;19.00;99.90
64715;DHT22;51144;53.002;6.506;2022-08-21T20:18:30;19.00;99.90
64715;DHT22;51144;53.002;6.506;2022-08-21T20:20:57;18.90;99.90
64715;DHT22;51144;53.002;6.506;2022-08-21T20:23:23;18.90;99.90
64715;DHT22;51144;53.002;6.506;2022-08-21T20:25:50;18.90;99.90
64715;DHT22;51144;53.002;6.506;2022-08-21T20:28:16;18.90;99.90
64715;DHT22;51144;53.002;6.506;2022-08-21T20:30:42;18.90;99.90
64715;DHT22;51144;53.002;6.506;2022-08-21T20:33:08;18.90;99.90
64715;DHT22;51144;53.002;6.506;2022-08-21T20:35:34;18.90;99.90
64715;DHT22;51144;53.002;6.506;2022-08-21T20:37:59;18.90;99.90
64715;DHT22;51144;53.002;6.506;2022-08-21T20:40:26;18.90;99.90
64715;DHT22;51144;53.002;6.506;2022-08-21T20:42:53;19.00;99.90
64715;DHT22;51144;53.002;6.506;2022-08-21T20:45:26;19.00;99.90
64715;DHT22;51144;53.002;6.506;2022-08-21T20:48:29;19.00;99.90
64715;DHT22;51144;53.002;6.506;2022-08-21T20:51:08;19.00;99.90
64715;DHT22;51144;53.002;6.506;2022-08-21T20:53:45;19.00;99.90
64715;DHT22;51144;53.002;6.506;2022-08-21T20:56:43;19.00;99.90
64715;DHT22;51144;53.002;6.506;2022-08-21T20:59:36;19.00;99.90
64715;DHT22;51144;53.002;6.506;2022-08-21T21:02:31;19.00;99.90
64715;DHT22;51144;53.002;6.506;2022-08-21T21:07:42;19.00;99.90
64715;DHT22;51144;53.002;6.506;2022-08-21T21:10:22;18.90;99.90
64715;DHT22;51144;53.002;6.506;2022-08-21T21:12:54;18.90;99.90
64715;DHT22;51144;53.002;6.506;2022-08-21T21:15:29;18.90;99.90
64715;DHT22;51144;53.002;6.506;2022-08-21T21:18:33;18.80;99.90
64715;DHT22;51144;53.002;6.506;2022-08-21T21:21:07;18.80;99.90
64715;DHT22;51144;53.002;6.506;2022-08-21T21:23:51;18.80;99.90
64715;DHT22;51144;53.002;6.506;2022-08-21T21:31:12;18.80;99.90
64715;DHT22;51144;53.002;6.506;2022-08-21T21:33:38;18.80;99.90
64715;DHT22;51144;53.002;6.506;2022-08-21T21:36:18;18.80;99.90
64715;DHT22;51144;53.002;6.506;2022-08-21T21:39:09;18.70;99.90
64715;DHT22;51144;53.002;6.506;2022-08-21T21:41:58;18.60;99.90
64715;DHT22;51144;53.002;6.506;2022-08-21T21:44:47;18.60;99.90
64715;DHT22;51144;53.002;6.506;2022-08-21T21:47:35;18.50;99.90
64715;DHT22;51144;53.002;6.506;2022-08-21T21:53:36;18.40;99.90
64715;DHT22;51144;53.002;6.506;2022-08-21T21:56:30;18.40;99.90
64715;DHT22;51144;53.002;6.506;2022-08-21T22:02:08;18.40;99.90
64715;DHT22;51144;53.002;6.506;2022-08-21T22:07:17;18.50;99.90
64715;DHT22;51144;53.002;6.506;2022-08-21T22:09:53;18.50;99.90
64715;DHT22;51144;53.002;6.506;2022-08-21T22:15:04;18.40;99.90
64715;DHT22;51144;53.002;6.506;2022-08-21T22:17:58;18.30;99.90
64715;DHT22;51144;53.002;6.506;2022-08-21T22:20:53;18.20;99.90
64715;DHT22;51144;53.002;6.506;2022-08-21T22:23:24;18.20;99.90
64715;DHT22;51144;53.002;6.506;2022-08-21T22:25:54;18.00;99.90
64715;DHT22;51144;53.002;6.506;2022-08-21T22:28:24;18.00;99.90
64715;DHT22;51144;53.002;6.506;2022-08-21T22:30:55;17.90;99.90
64715;DHT22;51144;53.002;6.506;2022-08-21T22:33:27;17.80;99.90
64715;DHT22;51144;53.002;6.506;2022-08-21T22:35:55;17.80;99.90
64715;DHT22;51144;53.002;6.506;2022-08-21T22:40:53;17.70;99.90
64715;DHT22;51144;53.002;6.506;2022-08-21T22:43:33;17.70;99.90
64715;DHT22;51144;53.002;6.506;2022-08-21T22:46:07;17.60;99.90
64715;DHT22;51144;53.002;6.506;2022-08-21T22:48:36;17.60;99.90
64715;DHT22;51144;53.002;6.506;2022-08-21T22:51:09;17.60;99.90
64715;DHT22;51144;53.002;6.506;2022-08-21T22:53:39;17.50;99.90
64715;DHT22;51144;53.002;6.506;2022-08-21T22:56:06;17.50;99.90
64715;DHT22;51144;53.002;6.506;2022-08-21T22:58:55;17.50;99.90
64715;DHT22;51144;53.002;6.506;2022-08-21T23:03:57;17.40;99.90
64715;DHT22;51144;53.002;6.506;2022-08-21T23:06:39;17.30;99.90
64715;DHT22;51144;53.002;6.506;2022-08-21T23:09:21;17.20;99.90
64715;DHT22;51144;53.002;6.506;2022-08-21T23:11:47;17.20;99.90
64715;DHT22;51144;53.002;6.506;2022-08-21T23:14:13;17.20;99.90
64715;DHT22;51144;53.002;6.506;2022-08-21T23:17:03;17.10;99.90
64715;DHT22;51144;53.002;6.506;2022-08-21T23:28:29;17.10;99.90
64715;DHT22;51144;53.002;6.506;2022-08-21T23:31:17;17.10;99.90
64715;DHT22;51144;53.002;6.506;2022-08-21T23:36:49;17.00;99.90
64715;DHT22;51144;53.002;6.506;2022-08-21T23:39:40;17.00;99.90
64715;DHT22;51144;53.002;6.506;2022-08-21T23:42:19;17.00;99.90
64715;DHT22;51144;53.002;6.506;2022-08-21T23:44:55;16.90;99.90
64715;DHT22;51144;53.002;6.506;2022-08-21T23:55:50;16.90;99.90
